sensor_id;sensor_type;location;lat;lon;timestamp;P1;durP1;ratioP1;P2;durP2;ratioP2
46210;SDS011;52144;48.040;-1.594;2023-06-19T00:01:29;7.72;;;4.38;;
46210;SDS011;52144;48.040;-1.594;2023-06-19T00:03:57;8.13;;;3.33;;
46210;SDS011;52144;48.040;-1.594;2023-06-19T00:06:24;11.70;;;4.18;;
46210;SDS011;52144;48.040;-1.594;2023-06-19T00:08:52;8.15;;;4.00;;
46210;SDS011;52144;48.040;-1.594;2023-06-19T00:11:20;11.50;;;3.92;;
46210;SDS011;52144;48.040;-1.594;2023-06-19T00:13:48;8.63;;;3.83;;
46210;SDS011;52144;48.040;-1.594;2023-06-19T00:16:17;12.27;;;3.45;;
46210;SDS011;52144;48.040;-1.594;2023-06-19T00:18:46;5.57;;;3.55;;
46210;SDS011;52144;48.040;-1.594;2023-06-19T00:21:14;6.57;;;3.67;;
46210;SDS011;52144;48.040;-1.594;2023-06-19T00:23:42;6.55;;;3.85;;
46210;SDS011;52144;48.040;-1.594;2023-06-19T00:26:10;11.43;;;4.40;;
46210;SDS011;52144;48.040;-1.594;2023-06-19T00:28:40;7.60;;;4.13;;
46210;SDS011;52144;48.040;-1.594;2023-06-19T00:31:09;7.30;;;4.40;;
46210;SDS011;52144;48.040;-1.594;2023-06-19T00:33:39;8.13;;;3.63;;
46210;SDS011;52144;48.040;-1.594;2023-06-19T00:36:09;6.43;;;3.50;;
46210;SDS011;52144;48.040;-1.594;2023-06-19T00:38:38;7.07;;;3.42;;
46210;SDS011;52144;48.040;-1.594;2023-06-19T00:41:06;5.95;;;3.60;;
46210;SDS011;52144;48.040;-1.594;2023-06-19T00:43:34;6.90;;;3.30;;
46210;SDS011;52144;48.040;-1.594;2023-06-19T00:46:02;8.85;;;4.03;;
46210;SDS011;52144;48.040;-1.594;2023-06-19T00:48:31;10.85;;;4.13;;
46210;SDS011;52144;48.040;-1.594;2023-06-19T00:51:01;6.30;;;3.63;;
46210;SDS011;52144;48.040;-1.594;2023-06-19T00:53:30;8.57;;;4.50;;
46210;SDS011;52144;48.040;-1.594;2023-06-19T00:56:00;10.60;;;3.15;;
46210;SDS011;52144;48.040;-1.594;2023-06-19T00:58:30;7.05;;;3.38;;
46210;SDS011;52144;48.040;-1.594;2023-06-19T01:00:58;12.77;;;3.78;;
46210;SDS011;52144;48.040;-1.594;2023-06-19T01:03:35;8.38;;;3.50;;
46210;SDS011;52144;48.040;-1.594;2023-06-19T01:06:04;6.72;;;3.63;;
46210;SDS011;52144;48.040;-1.594;2023-06-19T01:08:41;11.20;;;3.42;;
46210;SDS011;52144;48.040;-1.594;2023-06-19T01:11:16;10.75;;;4.88;;
46210;SDS011;52144;48.040;-1.594;2023-06-19T01:13:53;7.57;;;4.15;;
46210;SDS011;52144;48.040;-1.594;2023-06-19T01:18:55;6.50;;;3.95;;
46210;SDS011;52144;48.040;-1.594;2023-06-19T01:21:23;6.75;;;4.43;;
46210;SDS011;52144;48.040;-1.594;2023-06-19T01:23:52;7.15;;;4.03;;
46210;SDS011;52144;48.040;-1.594;2023-06-19T01:26:21;8.85;;;4.93;;
46210;SDS011;52144;48.040;-1.594;2023-06-19T01:28:53;10.35;;;4.88;;
46210;SDS011;52144;48.040;-1.594;2023-06-19T01:31:23;12.50;;;4.63;;
46210;SDS011;52144;48.040;-1.594;2023-06-19T01:33:56;15.45;;;4.88;;
46210;SDS011;52144;48.040;-1.594;2023-06-19T01:36:25;13.57;;;5.32;;
46210;SDS011;52144;48.040;-1.594;2023-06-19T01:38:55;10.63;;;4.63;;
46210;SDS011;52144;48.040;-1.594;2023-06-19T01:41:25;11.70;;;4.22;;
46210;SDS011;52144;48.040;-1.594;2023-06-19T01:43:53;9.98;;;5.18;;
46210;SDS011;52144;48.040;-1.594;2023-06-19T01:46:21;12.50;;;5.00;;
46210;SDS011;52144;48.040;-1.594;2023-06-19T01:48:49;8.57;;;4.53;;
46210;SDS011;52144;48.040;-1.594;2023-06-19T01:51:18;14.80;;;4.45;;
46210;SDS011;52144;48.040;-1.594;2023-06-19T01:53:45;9.00;;;3.88;;
46210;SDS011;52144;48.040;-1.594;2023-06-19T01:56:15;13.93;;;4.32;;
46210;SDS011;52144;48.040;-1.594;2023-06-19T01:58:42;11.18;;;4.72;;
46210;SDS011;52144;48.040;-1.594;2023-06-19T02:01:10;8.80;;;4.68;;
46210;SDS011;52144;48.040;-1.594;2023-06-19T02:03:38;12.57;;;4.63;;
46210;SDS011;52144;48.040;-1.594;2023-06-19T02:06:06;9.85;;;5.05;;
46210;SDS011;52144;48.040;-1.594;2023-06-19T02:08:34;7.32;;;4.13;;
46210;SDS011;52144;48.040;-1.594;2023-06-19T02:11:02;7.97;;;4.85;;
46210;SDS011;52144;48.040;-1.594;2023-06-19T02:13:31;14.73;;;4.57;;
46210;SDS011;52144;48.040;-1.594;2023-06-19T02:15:59;10.77;;;4.75;;
46210;SDS011;52144;48.040;-1.594;2023-06-19T02:18:26;10.05;;;4.53;;
46210;SDS011;52144;48.040;-1.594;2023-06-19T02:20:54;13.32;;;4.50;;
46210;SDS011;52144;48.040;-1.594;2023-06-19T02:23:22;9.77;;;5.15;;
46210;SDS011;52144;48.040;-1.594;2023-06-19T02:25:50;6.22;;;4.45;;
46210;SDS011;52144;48.040;-1.594;2023-06-19T02:28:17;10.60;;;5.13;;
46210;SDS011;52144;48.040;-1.594;2023-06-19T02:30:47;10.75;;;5.22;;
46210;SDS011;52144;48.040;-1.594;2023-06-19T02:33:15;14.60;;;5.18;;
46210;SDS011;52144;48.040;-1.594;2023-06-19T02:35:43;6.68;;;4.20;;
46210;SDS011;52144;48.040;-1.594;2023-06-19T02:38:11;10.70;;;4.93;;
46210;SDS011;52144;48.040;-1.594;2023-06-19T02:40:40;8.88;;;4.03;;
46210;SDS011;52144;48.040;-1.594;2023-06-19T02:43:07;7.57;;;4.63;;
46210;SDS011;52144;48.040;-1.594;2023-06-19T02:45:35;5.78;;;4.15;;
46210;SDS011;52144;48.040;-1.594;2023-06-19T02:48:04;8.88;;;4.07;;
46210;SDS011;52144;48.040;-1.594;2023-06-19T02:50:32;11.82;;;5.78;;
46210;SDS011;52144;48.040;-1.594;2023-06-19T02:53:00;7.18;;;4.28;;
46210;SDS011;52144;48.040;-1.594;2023-06-19T02:55:28;8.85;;;4.60;;
46210;SDS011;52144;48.040;-1.594;2023-06-19T02:57:56;9.25;;;5.00;;
46210;SDS011;52144;48.040;-1.594;2023-06-19T03:00:23;6.45;;;4.18;;
46210;SDS011;52144;48.040;-1.594;2023-06-19T03:02:53;8.65;;;4.93;;
46210;SDS011;52144;48.040;-1.594;2023-06-19T03:05:23;6.43;;;4.35;;
46210;SDS011;52144;48.040;-1.594;2023-06-19T03:07:53;10.43;;;4.82;;
46210;SDS011;52144;48.040;-1.594;2023-06-19T03:10:21;6.80;;;4.35;;
46210;SDS011;52144;48.040;-1.594;2023-06-19T03:12:49;12.52;;;5.75;;
46210;SDS011;52144;48.040;-1.594;2023-06-19T03:15:17;8.23;;;4.93;;
46210;SDS011;52144;48.040;-1.594;2023-06-19T03:17:44;6.60;;;3.80;;
46210;SDS011;52144;48.040;-1.594;2023-06-19T03:20:12;14.73;;;5.10;;
46210;SDS011;52144;48.040;-1.594;2023-06-19T03:22:41;12.55;;;4.93;;
46210;SDS011;52144;48.040;-1.594;2023-06-19T03:25:09;21.48;;;5.55;;
46210;SDS011;52144;48.040;-1.594;2023-06-19T03:27:37;7.90;;;5.30;;
46210;SDS011;52144;48.040;-1.594;2023-06-19T03:30:05;14.88;;;5.40;;
46210;SDS011;52144;48.040;-1.594;2023-06-19T03:32:34;14.35;;;5.50;;
46210;SDS011;52144;48.040;-1.594;2023-06-19T03:35:02;9.70;;;5.32;;
46210;SDS011;52144;48.040;-1.594;2023-06-19T03:37:31;11.20;;;5.00;;
46210;SDS011;52144;48.040;-1.594;2023-06-19T03:40:01;12.10;;;5.55;;
46210;SDS011;52144;48.040;-1.594;2023-06-19T03:42:30;9.40;;;5.32;;
46210;SDS011;52144;48.040;-1.594;2023-06-19T03:44:58;10.05;;;5.88;;
46210;SDS011;52144;48.040;-1.594;2023-06-19T03:47:26;11.55;;;6.28;;
46210;SDS011;52144;48.040;-1.594;2023-06-19T03:49:54;13.35;;;6.38;;
46210;SDS011;52144;48.040;-1.594;2023-06-19T03:52:32;20.55;;;7.70;;
46210;SDS011;52144;48.040;-1.594;2023-06-19T03:55:02;10.23;;;5.93;;
46210;SDS011;52144;48.040;-1.594;2023-06-19T03:57:30;13.40;;;5.68;;
46210;SDS011;52144;48.040;-1.594;2023-06-19T03:59:57;12.32;;;6.53;;
46210;SDS011;52144;48.040;-1.594;2023-06-19T04:02:25;14.65;;;6.85;;
46210;SDS011;52144;48.040;-1.594;2023-06-19T04:04:54;12.77;;;6.85;;
46210;SDS011;52144;48.040;-1.594;2023-06-19T04:07:21;13.27;;;5.50;;
46210;SDS011;52144;48.040;-1.594;2023-06-19T04:09:49;13.25;;;5.88;;
46210;SDS011;52144;48.040;-1.594;2023-06-19T04:12:18;14.60;;;6.90;;
46210;SDS011;52144;48.040;-1.594;2023-06-19T04:14:46;10.13;;;5.28;;
46210;SDS011;52144;48.040;-1.594;2023-06-19T04:17:14;11.48;;;6.50;;
46210;SDS011;52144;48.040;-1.594;2023-06-19T04:19:42;17.92;;;5.70;;
46210;SDS011;52144;48.040;-1.594;2023-06-19T04:22:10;12.98;;;6.85;;
46210;SDS011;52144;48.040;-1.594;2023-06-19T04:24:38;13.57;;;6.60;;
46210;SDS011;52144;48.040;-1.594;2023-06-19T04:27:06;13.48;;;6.47;;
46210;SDS011;52144;48.040;-1.594;2023-06-19T04:29:35;14.35;;;6.90;;
46210;SDS011;52144;48.040;-1.594;2023-06-19T04:32:04;12.85;;;5.97;;
46210;SDS011;52144;48.040;-1.594;2023-06-19T04:34:38;13.45;;;5.95;;
46210;SDS011;52144;48.040;-1.594;2023-06-19T04:37:06;14.45;;;7.43;;
46210;SDS011;52144;48.040;-1.594;2023-06-19T04:39:33;17.23;;;7.10;;
46210;SDS011;52144;48.040;-1.594;2023-06-19T04:42:01;15.35;;;7.85;;
46210;SDS011;52144;48.040;-1.594;2023-06-19T04:44:29;15.00;;;7.72;;
46210;SDS011;52144;48.040;-1.594;2023-06-19T04:47:01;18.95;;;7.97;;
46210;SDS011;52144;48.040;-1.594;2023-06-19T04:49:29;15.25;;;6.40;;
46210;SDS011;52144;48.040;-1.594;2023-06-19T04:51:57;15.48;;;8.25;;
46210;SDS011;52144;48.040;-1.594;2023-06-19T04:54:25;13.27;;;6.65;;
46210;SDS011;52144;48.040;-1.594;2023-06-19T04:56:53;13.02;;;7.50;;
46210;SDS011;52144;48.040;-1.594;2023-06-19T04:59:20;11.30;;;6.28;;
46210;SDS011;52144;48.040;-1.594;2023-06-19T05:01:48;13.20;;;6.97;;
46210;SDS011;52144;48.040;-1.594;2023-06-19T05:04:21;20.90;;;7.05;;
46210;SDS011;52144;48.040;-1.594;2023-06-19T05:06:49;16.08;;;6.63;;
46210;SDS011;52144;48.040;-1.594;2023-06-19T05:09:17;16.50;;;7.55;;
46210;SDS011;52144;48.040;-1.594;2023-06-19T05:11:46;18.50;;;6.97;;
46210;SDS011;52144;48.040;-1.594;2023-06-19T05:14:14;16.83;;;6.22;;
46210;SDS011;52144;48.040;-1.594;2023-06-19T05:16:41;16.27;;;6.82;;
46210;SDS011;52144;48.040;-1.594;2023-06-19T05:19:09;11.63;;;5.95;;
46210;SDS011;52144;48.040;-1.594;2023-06-19T05:21:39;10.98;;;5.43;;
46210;SDS011;52144;48.040;-1.594;2023-06-19T05:24:06;19.83;;;5.10;;
46210;SDS011;52144;48.040;-1.594;2023-06-19T05:26:34;11.55;;;5.63;;
46210;SDS011;52144;48.040;-1.594;2023-06-19T05:29:02;7.53;;;5.25;;
46210;SDS011;52144;48.040;-1.594;2023-06-19T05:31:30;8.55;;;4.78;;
46210;SDS011;52144;48.040;-1.594;2023-06-19T05:33:58;11.77;;;5.05;;
46210;SDS011;52144;48.040;-1.594;2023-06-19T05:36:25;11.55;;;5.85;;
46210;SDS011;52144;48.040;-1.594;2023-06-19T05:38:54;12.88;;;4.50;;
46210;SDS011;52144;48.040;-1.594;2023-06-19T05:41:22;13.30;;;4.88;;
46210;SDS011;52144;48.040;-1.594;2023-06-19T05:43:50;9.45;;;4.80;;
46210;SDS011;52144;48.040;-1.594;2023-06-19T05:46:18;7.28;;;4.47;;
46210;SDS011;52144;48.040;-1.594;2023-06-19T05:48:46;10.82;;;5.07;;
46210;SDS011;52144;48.040;-1.594;2023-06-19T05:51:14;11.73;;;5.85;;
46210;SDS011;52144;48.040;-1.594;2023-06-19T05:53:42;8.65;;;4.90;;
46210;SDS011;52144;48.040;-1.594;2023-06-19T05:56:11;11.05;;;6.15;;
46210;SDS011;52144;48.040;-1.594;2023-06-19T05:58:39;9.88;;;5.22;;
46210;SDS011;52144;48.040;-1.594;2023-06-19T06:01:07;8.65;;;5.22;;
46210;SDS011;52144;48.040;-1.594;2023-06-19T06:03:36;8.27;;;5.30;;
46210;SDS011;52144;48.040;-1.594;2023-06-19T06:06:03;9.23;;;5.60;;
46210;SDS011;52144;48.040;-1.594;2023-06-19T06:08:31;8.70;;;5.63;;
46210;SDS011;52144;48.040;-1.594;2023-06-19T06:10:59;8.43;;;5.45;;
46210;SDS011;52144;48.040;-1.594;2023-06-19T06:13:28;8.75;;;5.00;;
46210;SDS011;52144;48.040;-1.594;2023-06-19T06:15:56;13.73;;;5.05;;
46210;SDS011;52144;48.040;-1.594;2023-06-19T06:18:24;9.13;;;6.07;;
46210;SDS011;52144;48.040;-1.594;2023-06-19T06:20:52;9.48;;;4.72;;
46210;SDS011;52144;48.040;-1.594;2023-06-19T06:23:20;10.38;;;5.90;;
46210;SDS011;52144;48.040;-1.594;2023-06-19T06:25:47;10.25;;;6.05;;
46210;SDS011;52144;48.040;-1.594;2023-06-19T06:28:15;10.50;;;5.05;;
46210;SDS011;52144;48.040;-1.594;2023-06-19T06:30:45;10.00;;;4.70;;
46210;SDS011;52144;48.040;-1.594;2023-06-19T06:33:13;11.18;;;5.93;;
46210;SDS011;52144;48.040;-1.594;2023-06-19T06:35:40;11.90;;;5.72;;
46210;SDS011;52144;48.040;-1.594;2023-06-19T06:38:08;9.20;;;5.32;;
46210;SDS011;52144;48.040;-1.594;2023-06-19T06:40:37;12.10;;;6.43;;
46210;SDS011;52144;48.040;-1.594;2023-06-19T06:43:04;12.02;;;4.97;;
46210;SDS011;52144;48.040;-1.594;2023-06-19T06:45:32;11.48;;;5.97;;
46210;SDS011;52144;48.040;-1.594;2023-06-19T06:48:01;11.05;;;6.22;;
46210;SDS011;52144;48.040;-1.594;2023-06-19T06:50:29;9.27;;;5.78;;
46210;SDS011;52144;48.040;-1.594;2023-06-19T06:52:58;10.80;;;6.30;;
46210;SDS011;52144;48.040;-1.594;2023-06-19T06:55:26;9.50;;;6.43;;
46210;SDS011;52144;48.040;-1.594;2023-06-19T06:57:54;9.07;;;5.70;;
46210;SDS011;52144;48.040;-1.594;2023-06-19T07:00:21;10.98;;;5.60;;
46210;SDS011;52144;48.040;-1.594;2023-06-19T07:02:50;6.97;;;4.57;;
46210;SDS011;52144;48.040;-1.594;2023-06-19T07:05:19;7.65;;;4.22;;
46210;SDS011;52144;48.040;-1.594;2023-06-19T07:07:47;10.02;;;5.32;;
46210;SDS011;52144;48.040;-1.594;2023-06-19T07:10:15;11.82;;;5.43;;
46210;SDS011;52144;48.040;-1.594;2023-06-19T07:12:46;8.55;;;3.72;;
46210;SDS011;52144;48.040;-1.594;2023-06-19T07:15:15;10.82;;;5.25;;
46210;SDS011;52144;48.040;-1.594;2023-06-19T07:17:43;10.27;;;5.28;;
46210;SDS011;52144;48.040;-1.594;2023-06-19T07:20:11;10.85;;;4.95;;
46210;SDS011;52144;48.040;-1.594;2023-06-19T07:22:41;14.18;;;6.32;;
46210;SDS011;52144;48.040;-1.594;2023-06-19T07:25:09;12.93;;;7.90;;
46210;SDS011;52144;48.040;-1.594;2023-06-19T07:27:38;10.95;;;5.00;;
46210;SDS011;52144;48.040;-1.594;2023-06-19T07:30:07;9.38;;;5.03;;
46210;SDS011;52144;48.040;-1.594;2023-06-19T07:32:40;8.30;;;4.35;;
46210;SDS011;52144;48.040;-1.594;2023-06-19T07:35:08;13.75;;;6.15;;
46210;SDS011;52144;48.040;-1.594;2023-06-19T07:37:37;10.68;;;6.00;;
46210;SDS011;52144;48.040;-1.594;2023-06-19T07:40:07;15.93;;;5.22;;
46210;SDS011;52144;48.040;-1.594;2023-06-19T07:42:36;8.15;;;4.50;;
46210;SDS011;52144;48.040;-1.594;2023-06-19T07:45:04;11.13;;;4.82;;
46210;SDS011;52144;48.040;-1.594;2023-06-19T07:47:33;16.52;;;5.20;;
46210;SDS011;52144;48.040;-1.594;2023-06-19T07:50:00;7.32;;;4.70;;
46210;SDS011;52144;48.040;-1.594;2023-06-19T07:52:28;7.82;;;3.63;;
46210;SDS011;52144;48.040;-1.594;2023-06-19T07:54:56;7.95;;;4.18;;
46210;SDS011;52144;48.040;-1.594;2023-06-19T07:57:26;8.00;;;4.10;;
46210;SDS011;52144;48.040;-1.594;2023-06-19T07:59:54;7.00;;;4.00;;
46210;SDS011;52144;48.040;-1.594;2023-06-19T08:02:22;14.48;;;5.65;;
46210;SDS011;52144;48.040;-1.594;2023-06-19T08:04:50;7.95;;;4.35;;
46210;SDS011;52144;48.040;-1.594;2023-06-19T08:07:18;12.13;;;5.82;;
46210;SDS011;52144;48.040;-1.594;2023-06-19T08:09:45;10.40;;;5.38;;
46210;SDS011;52144;48.040;-1.594;2023-06-19T08:12:31;11.77;;;4.28;;
46210;SDS011;52144;48.040;-1.594;2023-06-19T08:14:58;6.85;;;4.25;;
46210;SDS011;52144;48.040;-1.594;2023-06-19T08:17:26;13.30;;;5.25;;
46210;SDS011;52144;48.040;-1.594;2023-06-19T08:19:54;7.15;;;4.72;;
46210;SDS011;52144;48.040;-1.594;2023-06-19T08:22:22;7.18;;;4.32;;
46210;SDS011;52144;48.040;-1.594;2023-06-19T08:24:51;6.97;;;3.53;;
46210;SDS011;52144;48.040;-1.594;2023-06-19T08:27:19;10.45;;;4.38;;
46210;SDS011;52144;48.040;-1.594;2023-06-19T08:29:48;9.02;;;3.92;;
46210;SDS011;52144;48.040;-1.594;2023-06-19T08:32:15;7.13;;;3.35;;
46210;SDS011;52144;48.040;-1.594;2023-06-19T08:34:43;6.60;;;3.45;;
46210;SDS011;52144;48.040;-1.594;2023-06-19T08:37:11;8.40;;;4.03;;
46210;SDS011;52144;48.040;-1.594;2023-06-19T08:39:39;6.38;;;3.22;;
46210;SDS011;52144;48.040;-1.594;2023-06-19T08:42:07;4.45;;;2.55;;
46210;SDS011;52144;48.040;-1.594;2023-06-19T08:44:35;6.93;;;2.75;;
46210;SDS011;52144;48.040;-1.594;2023-06-19T08:47:06;5.57;;;3.08;;
46210;SDS011;52144;48.040;-1.594;2023-06-19T08:49:34;5.22;;;3.25;;
46210;SDS011;52144;48.040;-1.594;2023-06-19T08:52:03;5.35;;;2.85;;
46210;SDS011;52144;48.040;-1.594;2023-06-19T08:54:31;3.85;;;3.00;;
46210;SDS011;52144;48.040;-1.594;2023-06-19T08:57:00;5.85;;;3.55;;
46210;SDS011;52144;48.040;-1.594;2023-06-19T08:59:29;5.88;;;2.85;;
46210;SDS011;52144;48.040;-1.594;2023-06-19T09:01:58;9.68;;;4.20;;
46210;SDS011;52144;48.040;-1.594;2023-06-19T09:04:27;3.75;;;2.75;;
46210;SDS011;52144;48.040;-1.594;2023-06-19T09:06:58;11.15;;;3.15;;
46210;SDS011;52144;48.040;-1.594;2023-06-19T09:09:27;7.00;;;3.55;;
46210;SDS011;52144;48.040;-1.594;2023-06-19T09:11:58;6.03;;;3.13;;
46210;SDS011;52144;48.040;-1.594;2023-06-19T09:14:31;6.75;;;3.40;;
46210;SDS011;52144;48.040;-1.594;2023-06-19T09:17:00;7.65;;;4.25;;
46210;SDS011;52144;48.040;-1.594;2023-06-19T09:19:30;6.80;;;3.58;;
46210;SDS011;52144;48.040;-1.594;2023-06-19T09:22:01;9.48;;;2.88;;
46210;SDS011;52144;48.040;-1.594;2023-06-19T09:24:33;6.72;;;3.40;;
46210;SDS011;52144;48.040;-1.594;2023-06-19T09:27:05;6.53;;;3.22;;
46210;SDS011;52144;48.040;-1.594;2023-06-19T09:29:35;9.00;;;3.05;;
46210;SDS011;52144;48.040;-1.594;2023-06-19T09:32:13;10.75;;;3.60;;
46210;SDS011;52144;48.040;-1.594;2023-06-19T09:34:43;7.70;;;3.15;;
46210;SDS011;52144;48.040;-1.594;2023-06-19T09:37:11;4.05;;;2.45;;
46210;SDS011;52144;48.040;-1.594;2023-06-19T09:39:40;7.28;;;2.88;;
46210;SDS011;52144;48.040;-1.594;2023-06-19T09:42:08;5.82;;;2.78;;
46210;SDS011;52144;48.040;-1.594;2023-06-19T09:44:39;3.40;;;2.22;;
46210;SDS011;52144;48.040;-1.594;2023-06-19T09:47:14;5.55;;;3.38;;
46210;SDS011;52144;48.040;-1.594;2023-06-19T09:49:48;5.75;;;2.90;;
46210;SDS011;52144;48.040;-1.594;2023-06-19T09:52:17;3.53;;;2.72;;
46210;SDS011;52144;48.040;-1.594;2023-06-19T09:54:49;4.28;;;2.15;;
46210;SDS011;52144;48.040;-1.594;2023-06-19T09:57:18;6.28;;;3.00;;
46210;SDS011;52144;48.040;-1.594;2023-06-19T09:59:46;4.68;;;2.42;;
46210;SDS011;52144;48.040;-1.594;2023-06-19T10:02:16;5.18;;;2.42;;
46210;SDS011;52144;48.040;-1.594;2023-06-19T10:04:45;4.85;;;2.35;;
46210;SDS011;52144;48.040;-1.594;2023-06-19T10:07:16;4.00;;;2.42;;
46210;SDS011;52144;48.040;-1.594;2023-06-19T10:10:00;3.28;;;2.40;;
46210;SDS011;52144;48.040;-1.594;2023-06-19T10:12:34;5.18;;;2.95;;
46210;SDS011;52144;48.040;-1.594;2023-06-19T10:15:09;5.85;;;2.63;;
46210;SDS011;52144;48.040;-1.594;2023-06-19T10:17:42;5.95;;;2.88;;
46210;SDS011;52144;48.040;-1.594;2023-06-19T10:22:57;4.78;;;2.95;;
46210;SDS011;52144;48.040;-1.594;2023-06-19T10:25:29;7.07;;;3.17;;
46210;SDS011;52144;48.040;-1.594;2023-06-19T10:27:58;8.18;;;3.95;;
46210;SDS011;52144;48.040;-1.594;2023-06-19T10:30:26;5.85;;;3.35;;
46210;SDS011;52144;48.040;-1.594;2023-06-19T10:32:55;7.45;;;3.60;;
46210;SDS011;52144;48.040;-1.594;2023-06-19T10:35:24;4.70;;;2.80;;
46210;SDS011;52144;48.040;-1.594;2023-06-19T10:37:51;4.63;;;2.72;;
46210;SDS011;52144;48.040;-1.594;2023-06-19T10:40:20;6.72;;;3.15;;
46210;SDS011;52144;48.040;-1.594;2023-06-19T10:42:49;7.40;;;3.30;;
46210;SDS011;52144;48.040;-1.594;2023-06-19T10:45:17;6.22;;;2.72;;
46210;SDS011;52144;48.040;-1.594;2023-06-19T10:47:45;5.35;;;3.33;;
46210;SDS011;52144;48.040;-1.594;2023-06-19T10:50:14;4.82;;;2.45;;
46210;SDS011;52144;48.040;-1.594;2023-06-19T10:52:42;5.40;;;3.25;;
46210;SDS011;52144;48.040;-1.594;2023-06-19T10:55:11;4.82;;;2.88;;
46210;SDS011;52144;48.040;-1.594;2023-06-19T10:57:43;7.72;;;2.70;;
46210;SDS011;52144;48.040;-1.594;2023-06-19T11:00:21;2.92;;;2.40;;
46210;SDS011;52144;48.040;-1.594;2023-06-19T11:02:51;4.28;;;2.22;;
46210;SDS011;52144;48.040;-1.594;2023-06-19T11:05:19;4.55;;;2.28;;
46210;SDS011;52144;48.040;-1.594;2023-06-19T11:07:52;3.53;;;2.03;;
46210;SDS011;52144;48.040;-1.594;2023-06-19T11:10:22;3.47;;;2.03;;
46210;SDS011;52144;48.040;-1.594;2023-06-19T11:12:54;5.75;;;2.58;;
46210;SDS011;52144;48.040;-1.594;2023-06-19T11:15:29;3.83;;;1.98;;
46210;SDS011;52144;48.040;-1.594;2023-06-19T11:17:57;2.50;;;1.60;;
46210;SDS011;52144;48.040;-1.594;2023-06-19T11:20:26;3.63;;;2.30;;
46210;SDS011;52144;48.040;-1.594;2023-06-19T11:22:54;3.95;;;2.45;;
46210;SDS011;52144;48.040;-1.594;2023-06-19T11:25:24;1.92;;;1.48;;
46210;SDS011;52144;48.040;-1.594;2023-06-19T11:28:03;3.92;;;2.53;;
46210;SDS011;52144;48.040;-1.594;2023-06-19T11:30:31;3.10;;;1.88;;
46210;SDS011;52144;48.040;-1.594;2023-06-19T11:33:00;3.55;;;1.83;;
46210;SDS011;52144;48.040;-1.594;2023-06-19T11:35:32;1.48;;;1.38;;
46210;SDS011;52144;48.040;-1.594;2023-06-19T11:38:02;6.72;;;2.40;;
46210;SDS011;52144;48.040;-1.594;2023-06-19T11:40:38;4.20;;;2.90;;
46210;SDS011;52144;48.040;-1.594;2023-06-19T11:43:08;3.15;;;1.80;;
46210;SDS011;52144;48.040;-1.594;2023-06-19T11:45:44;3.22;;;1.67;;
46210;SDS011;52144;48.040;-1.594;2023-06-19T11:48:13;5.00;;;2.15;;
46210;SDS011;52144;48.040;-1.594;2023-06-19T11:50:41;2.42;;;2.22;;
46210;SDS011;52144;48.040;-1.594;2023-06-19T11:53:09;3.40;;;1.80;;
46210;SDS011;52144;48.040;-1.594;2023-06-19T11:55:37;3.33;;;1.90;;
46210;SDS011;52144;48.040;-1.594;2023-06-19T11:58:05;3.13;;;1.80;;
46210;SDS011;52144;48.040;-1.594;2023-06-19T12:00:35;3.88;;;2.00;;
46210;SDS011;52144;48.040;-1.594;2023-06-19T12:03:03;4.90;;;2.00;;
46210;SDS011;52144;48.040;-1.594;2023-06-19T12:05:32;5.63;;;2.20;;
46210;SDS011;52144;48.040;-1.594;2023-06-19T12:07:59;2.63;;;1.95;;
46210;SDS011;52144;48.040;-1.594;2023-06-19T12:10:29;2.05;;;1.73;;
46210;SDS011;52144;48.040;-1.594;2023-06-19T12:12:56;3.33;;;1.92;;
46210;SDS011;52144;48.040;-1.594;2023-06-19T12:15:24;3.05;;;2.20;;
46210;SDS011;52144;48.040;-1.594;2023-06-19T12:17:54;3.45;;;1.80;;
46210;SDS011;52144;48.040;-1.594;2023-06-19T12:20:24;5.20;;;2.67;;
46210;SDS011;52144;48.040;-1.594;2023-06-19T12:22:52;3.25;;;2.25;;
46210;SDS011;52144;48.040;-1.594;2023-06-19T12:25:20;2.80;;;1.98;;
46210;SDS011;52144;48.040;-1.594;2023-06-19T12:27:48;4.75;;;2.10;;
46210;SDS011;52144;48.040;-1.594;2023-06-19T12:30:20;7.78;;;2.67;;
46210;SDS011;52144;48.040;-1.594;2023-06-19T12:32:49;4.00;;;1.98;;
46210;SDS011;52144;48.040;-1.594;2023-06-19T12:35:18;6.10;;;2.05;;
46210;SDS011;52144;48.040;-1.594;2023-06-19T12:37:47;4.65;;;2.03;;
46210;SDS011;52144;48.040;-1.594;2023-06-19T12:40:15;3.63;;;2.22;;
46210;SDS011;52144;48.040;-1.594;2023-06-19T12:42:43;4.47;;;2.10;;
46210;SDS011;52144;48.040;-1.594;2023-06-19T12:45:12;5.45;;;1.88;;
46210;SDS011;52144;48.040;-1.594;2023-06-19T12:47:40;3.33;;;1.95;;
46210;SDS011;52144;48.040;-1.594;2023-06-19T12:50:08;4.57;;;2.20;;
46210;SDS011;52144;48.040;-1.594;2023-06-19T12:52:39;3.28;;;2.03;;
46210;SDS011;52144;48.040;-1.594;2023-06-19T12:55:07;5.70;;;2.25;;
46210;SDS011;52144;48.040;-1.594;2023-06-19T12:57:35;4.18;;;2.00;;
46210;SDS011;52144;48.040;-1.594;2023-06-19T13:00:03;3.10;;;1.80;;
46210;SDS011;52144;48.040;-1.594;2023-06-19T13:02:34;5.97;;;2.00;;
46210;SDS011;52144;48.040;-1.594;2023-06-19T13:05:02;2.03;;;1.67;;
46210;SDS011;52144;48.040;-1.594;2023-06-19T13:07:29;5.93;;;2.10;;
46210;SDS011;52144;48.040;-1.594;2023-06-19T13:09:59;4.80;;;1.75;;
46210;SDS011;52144;48.040;-1.594;2023-06-19T13:12:26;2.88;;;1.67;;
46210;SDS011;52144;48.040;-1.594;2023-06-19T13:14:54;3.70;;;2.55;;
46210;SDS011;52144;48.040;-1.594;2023-06-19T13:17:22;4.30;;;2.03;;
46210;SDS011;52144;48.040;-1.594;2023-06-19T13:19:50;3.30;;;1.70;;
46210;SDS011;52144;48.040;-1.594;2023-06-19T13:22:17;2.97;;;1.75;;
46210;SDS011;52144;48.040;-1.594;2023-06-19T13:24:49;5.05;;;2.22;;
46210;SDS011;52144;48.040;-1.594;2023-06-19T13:27:19;5.63;;;2.20;;
46210;SDS011;52144;48.040;-1.594;2023-06-19T13:29:46;2.35;;;1.80;;
46210;SDS011;52144;48.040;-1.594;2023-06-19T13:32:14;3.60;;;1.95;;
46210;SDS011;52144;48.040;-1.594;2023-06-19T13:34:42;3.92;;;2.08;;
46210;SDS011;52144;48.040;-1.594;2023-06-19T13:37:10;3.40;;;2.05;;
46210;SDS011;52144;48.040;-1.594;2023-06-19T13:39:38;2.97;;;1.75;;
46210;SDS011;52144;48.040;-1.594;2023-06-19T13:42:07;3.92;;;2.13;;
46210;SDS011;52144;48.040;-1.594;2023-06-19T13:44:36;3.25;;;2.08;;
46210;SDS011;52144;48.040;-1.594;2023-06-19T13:47:04;4.78;;;2.42;;
46210;SDS011;52144;48.040;-1.594;2023-06-19T13:49:32;4.55;;;2.72;;
46210;SDS011;52144;48.040;-1.594;2023-06-19T13:52:00;3.20;;;1.58;;
46210;SDS011;52144;48.040;-1.594;2023-06-19T13:54:28;2.92;;;2.00;;
46210;SDS011;52144;48.040;-1.594;2023-06-19T13:56:56;2.78;;;2.35;;
46210;SDS011;52144;48.040;-1.594;2023-06-19T13:59:25;4.47;;;1.70;;
46210;SDS011;52144;48.040;-1.594;2023-06-19T14:01:54;3.33;;;2.30;;
46210;SDS011;52144;48.040;-1.594;2023-06-19T14:04:21;3.83;;;1.75;;
46210;SDS011;52144;48.040;-1.594;2023-06-19T14:06:49;2.25;;;1.92;;
46210;SDS011;52144;48.040;-1.594;2023-06-19T14:09:17;3.97;;;1.90;;
46210;SDS011;52144;48.040;-1.594;2023-06-19T14:11:45;6.82;;;2.38;;
46210;SDS011;52144;48.040;-1.594;2023-06-19T14:14:12;3.30;;;1.85;;
46210;SDS011;52144;48.040;-1.594;2023-06-19T14:16:40;3.50;;;2.05;;
46210;SDS011;52144;48.040;-1.594;2023-06-19T14:19:09;3.65;;;2.22;;
46210;SDS011;52144;48.040;-1.594;2023-06-19T14:21:37;3.60;;;2.20;;
46210;SDS011;52144;48.040;-1.594;2023-06-19T14:24:05;3.03;;;2.05;;
46210;SDS011;52144;48.040;-1.594;2023-06-19T14:26:33;2.50;;;1.55;;
46210;SDS011;52144;48.040;-1.594;2023-06-19T14:29:01;6.20;;;2.03;;
46210;SDS011;52144;48.040;-1.594;2023-06-19T14:31:29;5.60;;;2.20;;
46210;SDS011;52144;48.040;-1.594;2023-06-19T14:33:57;3.92;;;2.25;;
46210;SDS011;52144;48.040;-1.594;2023-06-19T14:36:26;5.60;;;2.22;;
46210;SDS011;52144;48.040;-1.594;2023-06-19T14:38:53;5.88;;;2.00;;
46210;SDS011;52144;48.040;-1.594;2023-06-19T14:41:21;2.65;;;2.35;;
46210;SDS011;52144;48.040;-1.594;2023-06-19T14:43:49;2.67;;;1.50;;
46210;SDS011;52144;48.040;-1.594;2023-06-19T14:46:17;3.17;;;1.90;;